Terminal Aerodrome Forecast
Issued by NWS

Home | Current Version | Previous Version | Text Only | Print | Product List | Glossary On
Versions: 1 2 3 4 5 6 7 8 9 10 11 12 13 14 15 16 17
000
FTAK31 PANC 250530
TAFADL
TAF
PADL 250530Z 2506/2606 30005KT P6SM VCFG SCT005 SCT040
      TEMPO 2506/2510 2SM BR BKN005
     FM252100 VRB03KT P6SM BKN035
     FM260400 VRB03KT P6SM VCSH BKN030
      AMD LTD TO CLD VIS AND WIND 2507/2516=

USA.gov is the U.S. government's official web portal to all federal, state and local government web resources and services.